sensor_id;sensor_type;location;lat;lon;timestamp;temperature;humidity
20744;DHT22;56303;52.160;-0.428;2023-12-04T00:01:16;8.60;99.90
20744;DHT22;56303;52.160;-0.428;2023-12-04T00:03:44;8.50;99.90
20744;DHT22;56303;52.160;-0.428;2023-12-04T00:06:11;8.50;99.90
20744;DHT22;56303;52.160;-0.428;2023-12-04T00:08:39;8.40;99.90
20744;DHT22;56303;52.160;-0.428;2023-12-04T00:11:06;8.50;99.90
20744;DHT22;56303;52.160;-0.428;2023-12-04T00:13:33;8.20;99.90
20744;DHT22;56303;52.160;-0.428;2023-12-04T00:16:01;8.10;99.90
20744;DHT22;56303;52.160;-0.428;2023-12-04T00:18:29;8.00;99.90
20744;DHT22;56303;52.160;-0.428;2023-12-04T00:20:56;8.00;99.90
20744;DHT22;56303;52.160;-0.428;2023-12-04T00:23:23;8.00;99.90
20744;DHT22;56303;52.160;-0.428;2023-12-04T00:25:51;8.00;99.90
20744;DHT22;56303;52.160;-0.428;2023-12-04T00:28:18;7.90;99.90
20744;DHT22;56303;52.160;-0.428;2023-12-04T00:30:44;8.00;99.90
20744;DHT22;56303;52.160;-0.428;2023-12-04T00:33:11;8.10;99.90
20744;DHT22;56303;52.160;-0.428;2023-12-04T00:35:38;8.20;99.90
20744;DHT22;56303;52.160;-0.428;2023-12-04T00:38:05;8.20;99.90
20744;DHT22;56303;52.160;-0.428;2023-12-04T00:40:33;8.50;99.90
20744;DHT22;56303;52.160;-0.428;2023-12-04T00:43:00;8.50;99.90
20744;DHT22;56303;52.160;-0.428;2023-12-04T00:45:27;8.50;99.90
20744;DHT22;56303;52.160;-0.428;2023-12-04T00:47:53;8.40;99.90
20744;DHT22;56303;52.160;-0.428;2023-12-04T00:50:21;8.20;99.90
20744;DHT22;56303;52.160;-0.428;2023-12-04T00:52:47;8.30;99.90
20744;DHT22;56303;52.160;-0.428;2023-12-04T00:55:14;8.10;99.90
20744;DHT22;56303;52.160;-0.428;2023-12-04T00:57:41;8.10;99.90
20744;DHT22;56303;52.160;-0.428;2023-12-04T01:00:09;8.30;99.90
20744;DHT22;56303;52.160;-0.428;2023-12-04T01:02:36;8.30;99.90
20744;DHT22;56303;52.160;-0.428;2023-12-04T01:05:03;8.30;99.90
20744;DHT22;56303;52.160;-0.428;2023-12-04T01:07:30;8.30;99.90
20744;DHT22;56303;52.160;-0.428;2023-12-04T01:09:57;8.30;99.90
20744;DHT22;56303;52.160;-0.428;2023-12-04T01:12:24;8.60;99.90
20744;DHT22;56303;52.160;-0.428;2023-12-04T01:14:51;8.70;99.90
20744;DHT22;56303;52.160;-0.428;2023-12-04T01:17:17;8.60;99.90
20744;DHT22;56303;52.160;-0.428;2023-12-04T01:19:44;8.30;99.90
20744;DHT22;56303;52.160;-0.428;2023-12-04T01:22:11;8.20;99.90
20744;DHT22;56303;52.160;-0.428;2023-12-04T01:24:38;7.30;99.90
20744;DHT22;56303;52.160;-0.428;2023-12-04T01:27:05;8.00;99.90
20744;DHT22;56303;52.160;-0.428;2023-12-04T01:29:32;8.10;99.90
20744;DHT22;56303;52.160;-0.428;2023-12-04T01:31:59;8.10;99.90
20744;DHT22;56303;52.160;-0.428;2023-12-04T01:34:26;7.90;99.90
20744;DHT22;56303;52.160;-0.428;2023-12-04T01:36:53;7.90;99.90
20744;DHT22;56303;52.160;-0.428;2023-12-04T01:39:20;7.90;99.90
20744;DHT22;56303;52.160;-0.428;2023-12-04T01:41:47;8.00;99.90
20744;DHT22;56303;52.160;-0.428;2023-12-04T01:44:14;8.60;99.90
20744;DHT22;56303;52.160;-0.428;2023-12-04T01:46:42;7.80;99.90
20744;DHT22;56303;52.160;-0.428;2023-12-04T01:49:09;7.90;99.90
20744;DHT22;56303;52.160;-0.428;2023-12-04T01:51:36;7.90;99.90
20744;DHT22;56303;52.160;-0.428;2023-12-04T01:54:03;7.70;99.90
20744;DHT22;56303;52.160;-0.428;2023-12-04T01:56:34;7.60;99.90
20744;DHT22;56303;52.160;-0.428;2023-12-04T01:59:03;7.60;99.90
20744;DHT22;56303;52.160;-0.428;2023-12-04T02:01:30;7.70;99.90
20744;DHT22;56303;52.160;-0.428;2023-12-04T02:03:57;7.90;99.90
20744;DHT22;56303;52.160;-0.428;2023-12-04T02:06:27;8.00;99.90
20744;DHT22;56303;52.160;-0.428;2023-12-04T02:08:56;8.00;99.90
20744;DHT22;56303;52.160;-0.428;2023-12-04T02:11:23;7.80;99.90
20744;DHT22;56303;52.160;-0.428;2023-12-04T02:13:50;7.50;99.90
20744;DHT22;56303;52.160;-0.428;2023-12-04T02:16:18;7.30;99.90
20744;DHT22;56303;52.160;-0.428;2023-12-04T02:18:46;7.20;99.90
20744;DHT22;56303;52.160;-0.428;2023-12-04T02:21:13;7.30;99.90
20744;DHT22;56303;52.160;-0.428;2023-12-04T02:23:40;7.20;99.90
20744;DHT22;56303;52.160;-0.428;2023-12-04T02:26:12;7.30;99.90
20744;DHT22;56303;52.160;-0.428;2023-12-04T02:28:41;7.10;99.90
20744;DHT22;56303;52.160;-0.428;2023-12-04T02:31:10;7.10;99.90
20744;DHT22;56303;52.160;-0.428;2023-12-04T02:33:38;7.00;99.90
20744;DHT22;56303;52.160;-0.428;2023-12-04T02:36:07;6.80;99.90
20744;DHT22;56303;52.160;-0.428;2023-12-04T02:38:36;6.80;99.90
20744;DHT22;56303;52.160;-0.428;2023-12-04T02:41:03;6.80;99.90
20744;DHT22;56303;52.160;-0.428;2023-12-04T02:43:30;7.00;99.90
20744;DHT22;56303;52.160;-0.428;2023-12-04T02:45:57;6.80;99.90
20744;DHT22;56303;52.160;-0.428;2023-12-04T02:48:24;6.90;99.90
20744;DHT22;56303;52.160;-0.428;2023-12-04T02:50:51;7.00;99.90
20744;DHT22;56303;52.160;-0.428;2023-12-04T02:53:18;6.70;99.90
20744;DHT22;56303;52.160;-0.428;2023-12-04T02:55:45;6.90;99.90
20744;DHT22;56303;52.160;-0.428;2023-12-04T02:58:12;6.50;99.90
20744;DHT22;56303;52.160;-0.428;2023-12-04T03:00:39;6.50;99.90
20744;DHT22;56303;52.160;-0.428;2023-12-04T03:03:05;6.30;99.90
20744;DHT22;56303;52.160;-0.428;2023-12-04T03:05:32;6.30;99.90
20744;DHT22;56303;52.160;-0.428;2023-12-04T03:07:59;6.40;99.90
20744;DHT22;56303;52.160;-0.428;2023-12-04T03:10:26;6.30;99.90
20744;DHT22;56303;52.160;-0.428;2023-12-04T03:12:53;6.30;99.90
20744;DHT22;56303;52.160;-0.428;2023-12-04T03:15:20;6.20;99.90
20744;DHT22;56303;52.160;-0.428;2023-12-04T03:17:47;6.30;99.90
20744;DHT22;56303;52.160;-0.428;2023-12-04T03:20:14;6.10;99.90
20744;DHT22;56303;52.160;-0.428;2023-12-04T03:22:41;6.00;99.90
20744;DHT22;56303;52.160;-0.428;2023-12-04T03:25:08;6.10;99.90
20744;DHT22;56303;52.160;-0.428;2023-12-04T03:27:35;6.10;99.90
20744;DHT22;56303;52.160;-0.428;2023-12-04T03:30:03;6.10;99.90
20744;DHT22;56303;52.160;-0.428;2023-12-04T03:32:29;6.30;99.90
20744;DHT22;56303;52.160;-0.428;2023-12-04T03:34:57;6.30;99.90
20744;DHT22;56303;52.160;-0.428;2023-12-04T03:37:24;6.10;99.90
20744;DHT22;56303;52.160;-0.428;2023-12-04T03:39:51;6.00;99.90
20744;DHT22;56303;52.160;-0.428;2023-12-04T03:42:18;6.20;99.90
20744;DHT22;56303;52.160;-0.428;2023-12-04T03:44:45;6.30;99.90
20744;DHT22;56303;52.160;-0.428;2023-12-04T03:47:11;5.60;99.90
20744;DHT22;56303;52.160;-0.428;2023-12-04T03:49:38;6.30;99.90
20744;DHT22;56303;52.160;-0.428;2023-12-04T03:52:05;6.30;99.90
20744;DHT22;56303;52.160;-0.428;2023-12-04T03:54:32;6.10;99.90
20744;DHT22;56303;52.160;-0.428;2023-12-04T03:56:59;6.00;99.90
20744;DHT22;56303;52.160;-0.428;2023-12-04T03:59:26;6.10;99.90
20744;DHT22;56303;52.160;-0.428;2023-12-04T04:01:53;6.10;99.90
20744;DHT22;56303;52.160;-0.428;2023-12-04T04:04:20;6.00;99.90
20744;DHT22;56303;52.160;-0.428;2023-12-04T04:06:47;6.00;99.90
20744;DHT22;56303;52.160;-0.428;2023-12-04T04:09:14;6.10;99.90
20744;DHT22;56303;52.160;-0.428;2023-12-04T04:11:41;6.30;99.90
20744;DHT22;56303;52.160;-0.428;2023-12-04T04:14:08;6.10;99.90
20744;DHT22;56303;52.160;-0.428;2023-12-04T04:16:35;6.00;99.90
20744;DHT22;56303;52.160;-0.428;2023-12-04T04:19:02;6.00;99.90
20744;DHT22;56303;52.160;-0.428;2023-12-04T04:21:29;6.00;99.90
20744;DHT22;56303;52.160;-0.428;2023-12-04T04:23:56;6.00;99.90
20744;DHT22;56303;52.160;-0.428;2023-12-04T04:26:23;6.00;99.90
20744;DHT22;56303;52.160;-0.428;2023-12-04T04:28:50;6.20;99.90
20744;DHT22;56303;52.160;-0.428;2023-12-04T04:31:17;6.20;99.90
20744;DHT22;56303;52.160;-0.428;2023-12-04T04:33:44;6.10;99.90
20744;DHT22;56303;52.160;-0.428;2023-12-04T04:36:11;6.10;99.90
20744;DHT22;56303;52.160;-0.428;2023-12-04T04:38:39;6.00;99.90
20744;DHT22;56303;52.160;-0.428;2023-12-04T04:41:07;5.90;99.90
20744;DHT22;56303;52.160;-0.428;2023-12-04T04:43:34;6.00;99.90
20744;DHT22;56303;52.160;-0.428;2023-12-04T04:46:00;5.80;99.90
20744;DHT22;56303;52.160;-0.428;2023-12-04T04:48:27;5.70;99.90
20744;DHT22;56303;52.160;-0.428;2023-12-04T04:50:55;5.80;99.90
20744;DHT22;56303;52.160;-0.428;2023-12-04T04:53:22;5.80;99.90
20744;DHT22;56303;52.160;-0.428;2023-12-04T04:55:49;5.70;99.90
20744;DHT22;56303;52.160;-0.428;2023-12-04T04:58:17;5.70;99.90
20744;DHT22;56303;52.160;-0.428;2023-12-04T05:00:45;5.80;99.90
20744;DHT22;56303;52.160;-0.428;2023-12-04T05:03:12;5.80;99.90
20744;DHT22;56303;52.160;-0.428;2023-12-04T05:05:39;6.10;99.90
20744;DHT22;56303;52.160;-0.428;2023-12-04T05:08:06;6.10;99.90
20744;DHT22;56303;52.160;-0.428;2023-12-04T05:10:33;6.00;99.90
20744;DHT22;56303;52.160;-0.428;2023-12-04T05:13:00;6.00;99.90
20744;DHT22;56303;52.160;-0.428;2023-12-04T05:15:27;6.10;99.90
20744;DHT22;56303;52.160;-0.428;2023-12-04T05:17:54;6.00;99.90
20744;DHT22;56303;52.160;-0.428;2023-12-04T05:20:21;5.90;99.90
20744;DHT22;56303;52.160;-0.428;2023-12-04T05:22:49;6.00;99.90
20744;DHT22;56303;52.160;-0.428;2023-12-04T05:25:16;6.00;99.90
20744;DHT22;56303;52.160;-0.428;2023-12-04T05:27:43;6.00;99.90
20744;DHT22;56303;52.160;-0.428;2023-12-04T05:30:11;6.20;99.90
20744;DHT22;56303;52.160;-0.428;2023-12-04T05:32:38;6.10;99.90
20744;DHT22;56303;52.160;-0.428;2023-12-04T05:35:05;6.10;99.90
20744;DHT22;56303;52.160;-0.428;2023-12-04T05:37:32;6.10;99.90
20744;DHT22;56303;52.160;-0.428;2023-12-04T05:39:59;6.10;99.90
20744;DHT22;56303;52.160;-0.428;2023-12-04T05:42:26;6.10;99.90
20744;DHT22;56303;52.160;-0.428;2023-12-04T05:44:53;6.10;99.90
20744;DHT22;56303;52.160;-0.428;2023-12-04T05:47:22;6.30;99.90
20744;DHT22;56303;52.160;-0.428;2023-12-04T05:49:49;6.00;99.90
20744;DHT22;56303;52.160;-0.428;2023-12-04T05:52:16;6.20;99.90
20744;DHT22;56303;52.160;-0.428;2023-12-04T05:54:43;6.20;99.90
20744;DHT22;56303;52.160;-0.428;2023-12-04T05:57:10;6.10;99.90
20744;DHT22;56303;52.160;-0.428;2023-12-04T05:59:37;6.10;99.90
20744;DHT22;56303;52.160;-0.428;2023-12-04T06:02:04;6.30;99.90
20744;DHT22;56303;52.160;-0.428;2023-12-04T06:04:31;6.20;99.90
20744;DHT22;56303;52.160;-0.428;2023-12-04T06:06:58;6.20;99.90
20744;DHT22;56303;52.160;-0.428;2023-12-04T06:09:25;6.30;99.90
20744;DHT22;56303;52.160;-0.428;2023-12-04T06:11:51;6.20;99.90
20744;DHT22;56303;52.160;-0.428;2023-12-04T06:14:18;6.10;99.90
20744;DHT22;56303;52.160;-0.428;2023-12-04T06:16:45;6.30;99.90
20744;DHT22;56303;52.160;-0.428;2023-12-04T06:19:12;6.30;99.90
20744;DHT22;56303;52.160;-0.428;2023-12-04T06:21:39;6.20;99.90
20744;DHT22;56303;52.160;-0.428;2023-12-04T06:24:07;6.10;99.90
20744;DHT22;56303;52.160;-0.428;2023-12-04T06:26:36;6.20;99.90
20744;DHT22;56303;52.160;-0.428;2023-12-04T06:29:05;6.10;99.90
20744;DHT22;56303;52.160;-0.428;2023-12-04T06:31:32;6.10;99.90
20744;DHT22;56303;52.160;-0.428;2023-12-04T06:34:00;5.50;99.90
20744;DHT22;56303;52.160;-0.428;2023-12-04T06:36:31;6.30;99.90
20744;DHT22;56303;52.160;-0.428;2023-12-04T06:38:59;6.30;99.90
20744;DHT22;56303;52.160;-0.428;2023-12-04T06:41:27;6.30;99.90
20744;DHT22;56303;52.160;-0.428;2023-12-04T06:43:54;6.10;99.90
20744;DHT22;56303;52.160;-0.428;2023-12-04T06:46:24;6.00;99.90
20744;DHT22;56303;52.160;-0.428;2023-12-04T06:48:55;6.00;99.90
20744;DHT22;56303;52.160;-0.428;2023-12-04T06:51:23;6.10;99.90
20744;DHT22;56303;52.160;-0.428;2023-12-04T06:53:50;5.80;99.90
20744;DHT22;56303;52.160;-0.428;2023-12-04T06:56:17;6.10;99.90
20744;DHT22;56303;52.160;-0.428;2023-12-04T06:58:46;6.00;99.90
20744;DHT22;56303;52.160;-0.428;2023-12-04T07:01:13;5.90;99.90
20744;DHT22;56303;52.160;-0.428;2023-12-04T07:03:40;5.90;99.90
20744;DHT22;56303;52.160;-0.428;2023-12-04T07:06:07;6.00;99.90
20744;DHT22;56303;52.160;-0.428;2023-12-04T07:08:35;5.80;99.90
20744;DHT22;56303;52.160;-0.428;2023-12-04T07:11:02;5.90;99.90
20744;DHT22;56303;52.160;-0.428;2023-12-04T07:13:29;5.90;99.90
20744;DHT22;56303;52.160;-0.428;2023-12-04T07:15:56;6.00;99.90
20744;DHT22;56303;52.160;-0.428;2023-12-04T07:18:26;6.00;99.90
20744;DHT22;56303;52.160;-0.428;2023-12-04T07:20:53;6.00;99.90
20744;DHT22;56303;52.160;-0.428;2023-12-04T07:23:20;6.20;99.90
20744;DHT22;56303;52.160;-0.428;2023-12-04T07:25:51;6.10;99.90
20744;DHT22;56303;52.160;-0.428;2023-12-04T07:28:19;6.10;99.90
20744;DHT22;56303;52.160;-0.428;2023-12-04T07:30:46;5.90;99.90
20744;DHT22;56303;52.160;-0.428;2023-12-04T07:33:13;5.90;99.90
20744;DHT22;56303;52.160;-0.428;2023-12-04T07:35:40;6.00;99.90
20744;DHT22;56303;52.160;-0.428;2023-12-04T07:38:07;6.00;99.90
20744;DHT22;56303;52.160;-0.428;2023-12-04T07:40:34;5.40;99.90
20744;DHT22;56303;52.160;-0.428;2023-12-04T07:43:01;6.00;99.90
20744;DHT22;56303;52.160;-0.428;2023-12-04T07:45:29;6.00;99.90
20744;DHT22;56303;52.160;-0.428;2023-12-04T07:47:56;6.00;99.90
20744;DHT22;56303;52.160;-0.428;2023-12-04T07:50:23;6.00;99.90
20744;DHT22;56303;52.160;-0.428;2023-12-04T07:52:51;6.10;99.90
20744;DHT22;56303;52.160;-0.428;2023-12-04T07:55:18;6.00;99.90
20744;DHT22;56303;52.160;-0.428;2023-12-04T07:57:45;6.10;99.90
20744;DHT22;56303;52.160;-0.428;2023-12-04T08:00:13;6.20;99.90
20744;DHT22;56303;52.160;-0.428;2023-12-04T08:02:40;6.30;99.90
20744;DHT22;56303;52.160;-0.428;2023-12-04T08:05:12;6.20;99.90
20744;DHT22;56303;52.160;-0.428;2023-12-04T08:07:40;6.30;99.90
20744;DHT22;56303;52.160;-0.428;2023-12-04T08:10:07;7.60;99.90
20744;DHT22;56303;52.160;-0.428;2023-12-04T08:12:35;6.20;99.90
20744;DHT22;56303;52.160;-0.428;2023-12-04T08:26:51;6.10;99.90
20744;DHT22;56303;52.160;-0.428;2023-12-04T08:29:18;6.30;99.90
20744;DHT22;56303;52.160;-0.428;2023-12-04T08:32:00;6.60;99.90
20744;DHT22;56303;52.160;-0.428;2023-12-04T08:34:58;5.70;99.90
20744;DHT22;56303;52.160;-0.428;2023-12-04T08:37:39;6.60;99.90
20744;DHT22;56303;52.160;-0.428;2023-12-04T08:40:34;7.40;99.90
20744;DHT22;56303;52.160;-0.428;2023-12-04T08:43:02;6.80;99.90
20744;DHT22;56303;52.160;-0.428;2023-12-04T08:45:41;6.70;99.90
20744;DHT22;56303;52.160;-0.428;2023-12-04T08:51:44;6.50;99.90
20744;DHT22;56303;52.160;-0.428;2023-12-04T08:57:09;6.80;99.90
20744;DHT22;56303;52.160;-0.428;2023-12-04T08:59:52;6.80;99.90
20744;DHT22;56303;52.160;-0.428;2023-12-04T09:02:29;5.90;99.90
20744;DHT22;56303;52.160;-0.428;2023-12-04T09:05:17;6.90;99.90
20744;DHT22;56303;52.160;-0.428;2023-12-04T09:07:47;6.80;99.90
20744;DHT22;56303;52.160;-0.428;2023-12-04T09:10:38;7.00;99.90
20744;DHT22;56303;52.160;-0.428;2023-12-04T09:13:25;6.90;99.90
20744;DHT22;56303;52.160;-0.428;2023-12-04T09:15:58;6.30;99.90
20744;DHT22;56303;52.160;-0.428;2023-12-04T09:18:25;6.80;99.90
20744;DHT22;56303;52.160;-0.428;2023-12-04T09:20:52;6.60;99.90
20744;DHT22;56303;52.160;-0.428;2023-12-04T09:23:19;6.70;99.90
20744;DHT22;56303;52.160;-0.428;2023-12-04T09:25:46;6.60;99.90
20744;DHT22;56303;52.160;-0.428;2023-12-04T09:28:13;6.70;99.90
20744;DHT22;56303;52.160;-0.428;2023-12-04T09:30:40;6.70;99.90
20744;DHT22;56303;52.160;-0.428;2023-12-04T09:33:07;6.80;99.90
20744;DHT22;56303;52.160;-0.428;2023-12-04T09:35:34;6.80;99.90
20744;DHT22;56303;52.160;-0.428;2023-12-04T09:38:02;6.60;99.90
20744;DHT22;56303;52.160;-0.428;2023-12-04T09:40:29;6.60;99.90
20744;DHT22;56303;52.160;-0.428;2023-12-04T09:42:57;6.70;99.90
20744;DHT22;56303;52.160;-0.428;2023-12-04T09:45:25;6.70;99.90
20744;DHT22;56303;52.160;-0.428;2023-12-04T09:47:53;7.50;99.90
20744;DHT22;56303;52.160;-0.428;2023-12-04T09:50:21;6.70;99.90
20744;DHT22;56303;52.160;-0.428;2023-12-04T09:52:52;6.60;99.90
20744;DHT22;56303;52.160;-0.428;2023-12-04T09:55:20;6.00;99.90
20744;DHT22;56303;52.160;-0.428;2023-12-04T09:57:47;6.60;99.90
20744;DHT22;56303;52.160;-0.428;2023-12-04T10:00:16;6.80;99.90
20744;DHT22;56303;52.160;-0.428;2023-12-04T10:02:44;6.70;99.90
20744;DHT22;56303;52.160;-0.428;2023-12-04T10:05:12;6.70;99.90
20744;DHT22;56303;52.160;-0.428;2023-12-04T10:07:41;6.80;99.90
20744;DHT22;56303;52.160;-0.428;2023-12-04T10:10:13;6.80;99.90
20744;DHT22;56303;52.160;-0.428;2023-12-04T10:12:56;7.00;99.90
20744;DHT22;56303;52.160;-0.428;2023-12-04T10:15:26;7.00;99.90
20744;DHT22;56303;52.160;-0.428;2023-12-04T10:17:53;6.90;99.90
20744;DHT22;56303;52.160;-0.428;2023-12-04T10:20:21;6.90;99.90
20744;DHT22;56303;52.160;-0.428;2023-12-04T10:22:59;7.00;99.90
20744;DHT22;56303;52.160;-0.428;2023-12-04T10:25:28;7.10;99.90
20744;DHT22;56303;52.160;-0.428;2023-12-04T10:28:10;7.30;99.90
20744;DHT22;56303;52.160;-0.428;2023-12-04T10:30:37;7.20;99.90
20744;DHT22;56303;52.160;-0.428;2023-12-04T10:33:13;6.50;99.90
20744;DHT22;56303;52.160;-0.428;2023-12-04T10:35:41;7.20;99.90
20744;DHT22;56303;52.160;-0.428;2023-12-04T10:38:09;6.60;99.90
20744;DHT22;56303;52.160;-0.428;2023-12-04T10:40:37;7.50;99.90
20744;DHT22;56303;52.160;-0.428;2023-12-04T10:43:24;7.60;99.90
20744;DHT22;56303;52.160;-0.428;2023-12-04T10:45:52;7.40;99.90
20744;DHT22;56303;52.160;-0.428;2023-12-04T10:48:21;7.50;99.90
20744;DHT22;56303;52.160;-0.428;2023-12-04T10:50:49;7.70;99.90
20744;DHT22;56303;52.160;-0.428;2023-12-04T10:53:17;7.60;99.90
20744;DHT22;56303;52.160;-0.428;2023-12-04T10:55:44;7.60;99.90
20744;DHT22;56303;52.160;-0.428;2023-12-04T10:58:18;7.50;99.90
20744;DHT22;56303;52.160;-0.428;2023-12-04T11:00:48;7.40;99.90
20744;DHT22;56303;52.160;-0.428;2023-12-04T11:03:24;7.50;99.90
20744;DHT22;56303;52.160;-0.428;2023-12-04T11:06:00;7.50;99.90
20744;DHT22;56303;52.160;-0.428;2023-12-04T11:08:33;7.40;99.90
20744;DHT22;56303;52.160;-0.428;2023-12-04T11:11:05;7.40;99.90
20744;DHT22;56303;52.160;-0.428;2023-12-04T11:13:39;7.40;99.90
20744;DHT22;56303;52.160;-0.428;2023-12-04T11:16:34;7.30;99.90
20744;DHT22;56303;52.160;-0.428;2023-12-04T11:19:30;7.30;99.90
20744;DHT22;56303;52.160;-0.428;2023-12-04T11:22:02;7.20;99.90
20744;DHT22;56303;52.160;-0.428;2023-12-04T11:24:31;7.30;99.90
20744;DHT22;56303;52.160;-0.428;2023-12-04T11:26:58;7.30;99.90
20744;DHT22;56303;52.160;-0.428;2023-12-04T11:29:26;7.40;99.90
20744;DHT22;56303;52.160;-0.428;2023-12-04T11:31:55;7.30;99.90
20744;DHT22;56303;52.160;-0.428;2023-12-04T11:34:24;7.30;99.90
20744;DHT22;56303;52.160;-0.428;2023-12-04T11:36:52;7.30;99.90
20744;DHT22;56303;52.160;-0.428;2023-12-04T11:39:19;7.40;99.90
20744;DHT22;56303;52.160;-0.428;2023-12-04T11:41:47;7.50;99.90
20744;DHT22;56303;52.160;-0.428;2023-12-04T11:44:15;7.40;99.90
20744;DHT22;56303;52.160;-0.428;2023-12-04T11:47:10;7.30;99.90
20744;DHT22;56303;52.160;-0.428;2023-12-04T11:49:38;7.50;99.90
20744;DHT22;56303;52.160;-0.428;2023-12-04T11:52:07;7.50;99.90
20744;DHT22;56303;52.160;-0.428;2023-12-04T11:55:00;7.40;99.90
20744;DHT22;56303;52.160;-0.428;2023-12-04T11:57:40;7.40;99.90
20744;DHT22;56303;52.160;-0.428;2023-12-04T12:00:12;7.40;99.90
20744;DHT22;56303;52.160;-0.428;2023-12-04T12:05:41;7.50;99.90
20744;DHT22;56303;52.160;-0.428;2023-12-04T12:08:09;7.40;99.90
20744;DHT22;56303;52.160;-0.428;2023-12-04T12:10:37;7.40;99.90
20744;DHT22;56303;52.160;-0.428;2023-12-04T12:13:04;7.40;99.90
20744;DHT22;56303;52.160;-0.428;2023-12-04T12:15:33;7.50;99.90
20744;DHT22;56303;52.160;-0.428;2023-12-04T12:18:01;7.40;99.90
20744;DHT22;56303;52.160;-0.428;2023-12-04T12:20:28;7.40;99.90
20744;DHT22;56303;52.160;-0.428;2023-12-04T12:22:56;7.50;99.90
20744;DHT22;56303;52.160;-0.428;2023-12-04T12:25:23;7.60;99.90
20744;DHT22;56303;52.160;-0.428;2023-12-04T12:27:53;7.40;99.90
20744;DHT22;56303;52.160;-0.428;2023-12-04T12:30:21;7.40;99.90
20744;DHT22;56303;52.160;-0.428;2023-12-04T12:32:50;7.40;99.90
20744;DHT22;56303;52.160;-0.428;2023-12-04T12:35:19;7.40;99.90
20744;DHT22;56303;52.160;-0.428;2023-12-04T12:37:46;7.60;99.90
20744;DHT22;56303;52.160;-0.428;2023-12-04T12:40:16;7.50;99.90
20744;DHT22;56303;52.160;-0.428;2023-12-04T12:43:05;7.50;99.90
20744;DHT22;56303;52.160;-0.428;2023-12-04T12:45:43;7.60;99.90
20744;DHT22;56303;52.160;-0.428;2023-12-04T12:48:17;7.50;99.90
20744;DHT22;56303;52.160;-0.428;2023-12-04T12:50:51;7.80;99.90
20744;DHT22;56303;52.160;-0.428;2023-12-04T12:53:20;7.80;99.90
20744;DHT22;56303;52.160;-0.428;2023-12-04T12:55:47;7.60;99.90
20744;DHT22;56303;52.160;-0.428;2023-12-04T12:58:15;7.80;99.90
20744;DHT22;56303;52.160;-0.428;2023-12-04T13:00:48;7.80;99.90
20744;DHT22;56303;52.160;-0.428;2023-12-04T13:03:19;7.60;99.90
20744;DHT22;56303;52.160;-0.428;2023-12-04T13:05:46;7.60;99.90
20744;DHT22;56303;52.160;-0.428;2023-12-04T13:08:13;7.70;99.90
20744;DHT22;56303;52.160;-0.428;2023-12-04T13:10:44;7.60;99.90
20744;DHT22;56303;52.160;-0.428;2023-12-04T13:13:12;7.50;99.90
20744;DHT22;56303;52.160;-0.428;2023-12-04T13:15:40;8.50;99.90
20744;DHT22;56303;52.160;-0.428;2023-12-04T13:18:09;7.30;99.90
20744;DHT22;56303;52.160;-0.428;2023-12-04T13:20:36;7.30;99.90
20744;DHT22;56303;52.160;-0.428;2023-12-04T13:23:03;7.20;99.90
20744;DHT22;56303;52.160;-0.428;2023-12-04T13:25:30;7.10;99.90
20744;DHT22;56303;52.160;-0.428;2023-12-04T13:27:58;7.10;99.90
20744;DHT22;56303;52.160;-0.428;2023-12-04T13:30:26;7.20;99.90
20744;DHT22;56303;52.160;-0.428;2023-12-04T13:32:53;7.40;99.90
20744;DHT22;56303;52.160;-0.428;2023-12-04T13:35:20;7.20;99.90
20744;DHT22;56303;52.160;-0.428;2023-12-04T13:37:46;7.10;99.90
20744;DHT22;56303;52.160;-0.428;2023-12-04T13:40:21;7.00;99.90
20744;DHT22;56303;52.160;-0.428;2023-12-04T13:42:59;7.20;99.90
20744;DHT22;56303;52.160;-0.428;2023-12-04T13:45:45;7.30;99.90
20744;DHT22;56303;52.160;-0.428;2023-12-04T13:48:12;7.20;99.90
20744;DHT22;56303;52.160;-0.428;2023-12-04T13:50:41;7.20;99.90
20744;DHT22;56303;52.160;-0.428;2023-12-04T13:53:08;7.10;99.90
20744;DHT22;56303;52.160;-0.428;2023-12-04T13:55:35;7.00;99.90
20744;DHT22;56303;52.160;-0.428;2023-12-04T13:58:25;6.90;99.90
20744;DHT22;56303;52.160;-0.428;2023-12-04T14:01:06;6.90;99.90
20744;DHT22;56303;52.160;-0.428;2023-12-04T14:03:49;7.00;99.90
20744;DHT22;56303;52.160;-0.428;2023-12-04T14:06:17;7.00;99.90
20744;DHT22;56303;52.160;-0.428;2023-12-04T14:08:44;6.80;99.90
20744;DHT22;56303;52.160;-0.428;2023-12-04T14:11:13;6.90;99.90
20744;DHT22;56303;52.160;-0.428;2023-12-04T14:13:41;6.90;99.90
20744;DHT22;56303;52.160;-0.428;2023-12-04T14:16:09;7.00;99.90
20744;DHT22;56303;52.160;-0.428;2023-12-04T14:18:37;7.10;99.90
20744;DHT22;56303;52.160;-0.428;2023-12-04T14:21:04;7.10;99.90
20744;DHT22;56303;52.160;-0.428;2023-12-04T14:23:31;7.20;99.90
20744;DHT22;56303;52.160;-0.428;2023-12-04T14:26:00;7.20;99.90
20744;DHT22;56303;52.160;-0.428;2023-12-04T14:28:30;7.00;99.90
20744;DHT22;56303;52.160;-0.428;2023-12-04T14:31:08;7.00;99.90
20744;DHT22;56303;52.160;-0.428;2023-12-04T14:33:35;6.90;99.90
20744;DHT22;56303;52.160;-0.428;2023-12-04T14:36:07;7.10;99.90
20744;DHT22;56303;52.160;-0.428;2023-12-04T14:38:34;7.10;99.90
20744;DHT22;56303;52.160;-0.428;2023-12-04T14:41:01;7.00;99.90
20744;DHT22;56303;52.160;-0.428;2023-12-04T14:43:28;6.90;99.90
20744;DHT22;56303;52.160;-0.428;2023-12-04T14:45:55;6.90;99.90
20744;DHT22;56303;52.160;-0.428;2023-12-04T14:48:22;6.90;99.90
20744;DHT22;56303;52.160;-0.428;2023-12-04T14:50:50;6.90;99.90
20744;DHT22;56303;52.160;-0.428;2023-12-04T14:53:16;6.90;99.90
20744;DHT22;56303;52.160;-0.428;2023-12-04T14:55:55;6.80;99.90
20744;DHT22;56303;52.160;-0.428;2023-12-04T14:58:40;6.80;99.90
20744;DHT22;56303;52.160;-0.428;2023-12-04T15:01:07;6.60;99.90
20744;DHT22;56303;52.160;-0.428;2023-12-04T15:03:54;6.50;99.90
20744;DHT22;56303;52.160;-0.428;2023-12-04T15:06:40;6.70;99.90
20744;DHT22;56303;52.160;-0.428;2023-12-04T15:09:27;6.60;99.90
20744;DHT22;56303;52.160;-0.428;2023-12-04T15:11:54;6.60;99.90
20744;DHT22;56303;52.160;-0.428;2023-12-04T15:14:22;6.60;99.90
20744;DHT22;56303;52.160;-0.428;2023-12-04T15:16:52;6.40;99.90
20744;DHT22;56303;52.160;-0.428;2023-12-04T15:19:27;6.50;99.90
20744;DHT22;56303;52.160;-0.428;2023-12-04T15:22:03;6.40;99.90
20744;DHT22;56303;52.160;-0.428;2023-12-04T15:24:31;6.30;99.90
20744;DHT22;56303;52.160;-0.428;2023-12-04T15:27:02;6.40;99.90
20744;DHT22;56303;52.160;-0.428;2023-12-04T15:29:38;6.60;99.90
20744;DHT22;56303;52.160;-0.428;2023-12-04T15:32:11;6.40;99.90
20744;DHT22;56303;52.160;-0.428;2023-12-04T15:34:39;6.40;99.90
20744;DHT22;56303;52.160;-0.428;2023-12-04T15:37:06;6.60;99.90
20744;DHT22;56303;52.160;-0.428;2023-12-04T15:39:40;6.50;99.90
20744;DHT22;56303;52.160;-0.428;2023-12-04T15:42:08;6.60;99.90
20744;DHT22;56303;52.160;-0.428;2023-12-04T15:44:42;5.30;99.90
20744;DHT22;56303;52.160;-0.428;2023-12-04T15:47:13;6.70;99.90
20744;DHT22;56303;52.160;-0.428;2023-12-04T15:49:40;6.50;99.90
20744;DHT22;56303;52.160;-0.428;2023-12-04T15:52:10;6.60;99.90
20744;DHT22;56303;52.160;-0.428;2023-12-04T15:54:43;6.70;99.90
20744;DHT22;56303;52.160;-0.428;2023-12-04T15:57:11;6.40;99.90
20744;DHT22;56303;52.160;-0.428;2023-12-04T15:59:40;6.40;99.90
20744;DHT22;56303;52.160;-0.428;2023-12-04T16:02:07;6.50;99.90
20744;DHT22;56303;52.160;-0.428;2023-12-04T16:04:48;6.40;99.90